Portada
METAR-TAF:

METAR-TAF

Aeroports :

Orlhac, França

latitud: 44-53N, longitud: 002-25E, altitud: 639 m

Observació

L'informe es va fer fa 44 minuts, a les 14:00 UTC
Vent 4 kt amb direcció variable
Temperatura 24°C
Humitat 36%
Pressió 1015 hPa
Visibilitat 10 km o més

METAR: LFLW 301400Z AUTO VRB04KT 9999 ////// 24/08 Q1015

Hora: 16:44 (14:44 UTC)


TAF: manca

Observacions i pronòstics meteorològics de més de 4000 aeroports (METAR i TAF).

Les estacions disponibles són els punts grocs i vermells al mapa.

Posi el ratolí al punt desitjat per veure el nom de l'estació.

Feu clic per veure les observacions i els pronòstics meteorològics.

Per canviar el mapa: feu clic els botons verds amb una creu de color negre per apropar; al botó verd amb un guió per allunyar la imatge; o en les fletxes verdes per a mapes adjacents.


METAR-TAF: